Time;durP1;ratioP1;P1;durP2;ratioP2;P2;SDS_P1;SDS_P2;PMS_P1;PMS_P2;Temp;Humidity;BMP_temperature;BMP_pressure;BME280_temperature;BME280_humidity;BME280_pressure;Samples;Min_cycle;Max_cycle;Signal;HPM_P1;HPM_P2
2020/12/28 00:02:08;;;;;;;17.60;8.30;;;4.30;99.90;;;;;;5047224;28;20037;-66
2020/12/28 00:04:34;;;;;;;15.25;7.53;;;4.20;99.90;;;;;;5047924;28;20493;-63
2020/12/28 00:07:00;;;;;;;18.63;7.88;;;4.20;99.90;;;;;;5049084;28;20043;-63
2020/12/28 00:09:26;;;;;;;14.25;7.78;;;4.10;99.90;;;;;;5048541;28;20039;-63
2020/12/28 00:11:55;;;;;;;16.67;8.18;;;4.00;99.90;;;;;;5048979;28;20108;-62
2020/12/28 00:14:21;;;;;;;18.88;8.68;;;4.00;99.90;;;;;;5047985;28;20112;-63
2020/12/28 00:16:47;;;;;;;16.65;8.63;;;3.90;99.90;;;;;;5048746;28;20448;-63
2020/12/28 00:19:12;;;;;;;15.43;8.40;;;3.90;99.90;;;;;;5046333;28;20037;-63
2020/12/28 00:21:38;;;;;;;17.17;8.63;;;3.90;99.90;;;;;;5048528;28;20167;-62
2020/12/28 00:24:04;;;;;;;16.45;7.53;;;3.80;99.90;;;;;;5043248;28;20367;-62
2020/12/28 00:26:38;;;;;;;17.85;8.25;;;3.80;99.90;;;;;;5048145;28;20537;-63
2020/12/28 00:29:08;;;;;;;16.38;8.48;;;3.70;99.90;;;;;;5048518;28;20091;-62
2020/12/28 00:31:34;;;;;;;16.02;7.95;;;3.70;99.90;;;;;;5046662;28;20123;-63
2020/12/28 00:34:00;;;;;;;21.98;9.57;;;3.70;99.90;;;;;;5045791;28;20195;-62
2020/12/28 00:36:27;;;;;;;17.92;9.13;;;3.70;99.90;;;;;;5046991;28;20108;-62
2020/12/28 00:38:53;;;;;;;17.48;8.57;;;3.60;99.90;;;;;;5045384;28;20133;-63
2020/12/28 00:41:18;;;;;;;27.60;9.18;;;3.60;99.90;;;;;;5047537;28;20541;-63
2020/12/28 00:43:44;;;;;;;19.95;9.02;;;3.60;99.90;;;;;;5047511;28;20047;-61
2020/12/28 00:46:11;;;;;;;22.33;9.25;;;3.60;99.90;;;;;;5046016;28;20025;-62
2020/12/28 00:48:36;;;;;;;22.05;9.50;;;3.60;99.90;;;;;;5047746;28;20021;-63
2020/12/28 00:51:03;;;;;;;20.52;9.10;;;3.60;99.90;;;;;;5040603;28;20652;-62
2020/12/28 00:53:29;;;;;;;16.55;8.45;;;3.60;99.90;;;;;;5046675;28;20029;-62
2020/12/28 00:55:55;;;;;;;17.55;8.00;;;3.50;99.90;;;;;;5048120;28;20098;-63
2020/12/28 00:58:21;;;;;;;19.98;7.88;;;3.40;99.90;;;;;;5047416;28;20025;-63
2020/12/28 01:00:47;;;;;;;16.33;8.05;;;3.40;99.90;;;;;;5043852;28;20044;-61
2020/12/28 01:03:13;;;;;;;16.20;7.90;;;3.30;99.90;;;;;;5039833;28;20090;-62
2020/12/28 01:05:38;;;;;;;16.70;8.20;;;3.30;99.90;;;;;;5038270;28;20033;-62
2020/12/28 01:08:04;;;;;;;18.23;8.20;;;3.30;99.90;;;;;;5036101;28;20800;-61
2020/12/28 01:10:29;;;;;;;20.67;8.88;;;3.30;99.90;;;;;;5036996;28;20121;-62
2020/12/28 01:12:55;;;;;;;19.92;9.18;;;3.30;99.90;;;;;;5037870;28;20122;-62
2020/12/28 01:15:20;;;;;;;24.23;9.98;;;3.30;99.90;;;;;;5039095;28;20040;-62
2020/12/28 01:17:46;;;;;;;22.23;9.02;;;3.30;99.90;;;;;;5037284;28;20060;-63
2020/12/28 01:20:11;;;;;;;25.15;9.68;;;3.30;99.90;;;;;;5036996;28;20123;-62
2020/12/28 01:22:37;;;;;;;25.23;10.75;;;3.40;99.90;;;;;;5036497;28;20029;-62
2020/12/28 01:25:03;;;;;;;21.77;9.13;;;3.40;99.90;;;;;;5037303;28;20542;-63
2020/12/28 01:27:29;;;;;;;26.10;9.35;;;3.30;99.90;;;;;;5038319;28;20029;-61
2020/12/28 01:29:54;;;;;;;22.05;10.27;;;3.30;99.90;;;;;;5038655;28;20048;-62
2020/12/28 01:32:20;;;;;;;24.70;9.85;;;3.20;99.90;;;;;;5037194;28;20036;-63
2020/12/28 01:34:45;;;;;;;22.75;10.10;;;3.20;99.90;;;;;;5038093;28;20120;-63
2020/12/28 01:37:11;;;;;;;22.45;10.45;;;3.20;99.90;;;;;;5041620;28;20059;-63
2020/12/28 01:39:38;;;;;;;33.25;11.05;;;3.20;99.90;;;;;;5041381;28;20405;-63
2020/12/28 01:42:03;;;;;;;22.70;10.18;;;3.20;99.90;;;;;;5041705;28;20041;-60
2020/12/28 01:44:29;;;;;;;25.88;10.75;;;3.20;99.90;;;;;;5040299;28;20039;-63
2020/12/28 01:46:55;;;;;;;21.38;9.88;;;3.20;99.90;;;;;;5039848;28;20036;-62
2020/12/28 01:49:20;;;;;;;28.55;10.77;;;3.10;99.90;;;;;;5042506;28;20121;-63
2020/12/28 01:51:47;;;;;;;27.40;11.18;;;3.10;99.90;;;;;;5040181;28;20726;-62
2020/12/28 01:54:12;;;;;;;24.58;11.75;;;3.10;99.90;;;;;;5042146;28;20029;-62
2020/12/28 01:56:39;;;;;;;31.95;11.60;;;3.20;99.90;;;;;;5044399;28;20091;-62
2020/12/28 01:59:05;;;;;;;34.72;12.30;;;3.20;99.90;;;;;;5041379;28;20080;-63
2020/12/28 02:01:41;;;;;;;32.78;12.57;;;3.20;99.90;;;;;;5042216;28;20040;-62
2020/12/28 02:04:07;;;;;;;38.25;13.50;;;3.30;99.90;;;;;;5040825;28;20397;-62
2020/12/28 02:06:33;;;;;;;32.03;12.13;;;3.40;99.90;;;;;;5039899;28;20439;-63
2020/12/28 02:08:59;;;;;;;33.60;12.90;;;3.50;99.90;;;;;;5042137;28;20032;-62
2020/12/28 02:11:27;;;;;;;31.58;12.63;;;3.50;99.90;;;;;;5041181;28;20485;-63
2020/12/28 02:13:53;;;;;;;32.22;12.63;;;3.60;99.90;;;;;;5038384;28;20033;-62
2020/12/28 02:16:18;;;;;;;30.63;12.25;;;3.60;99.90;;;;;;5041552;28;20092;-63
2020/12/28 02:18:44;;;;;;;32.63;12.57;;;3.60;99.90;;;;;;5042076;28;20025;-63
2020/12/28 02:21:10;;;;;;;28.05;11.48;;;3.60;99.90;;;;;;5040693;28;20512;-62
2020/12/28 02:23:35;;;;;;;29.38;10.88;;;3.60;99.90;;;;;;5039637;28;20033;-63
2020/12/28 02:26:01;;;;;;;27.48;11.35;;;3.60;99.90;;;;;;5040478;28;20034;-63
2020/12/28 02:28:26;;;;;;;27.40;10.60;;;3.50;99.90;;;;;;5041590;28;20121;-61
2020/12/28 02:30:52;;;;;;;28.88;9.98;;;3.50;99.90;;;;;;5039748;28;20977;-63
2020/12/28 02:33:17;;;;;;;21.63;9.43;;;3.40;99.90;;;;;;5042163;28;20049;-62
2020/12/28 02:35:43;;;;;;;27.15;9.93;;;3.40;99.90;;;;;;5039730;28;20037;-61
2020/12/28 02:38:08;;;;;;;24.25;10.35;;;3.40;99.90;;;;;;5038569;28;20083;-63
2020/12/28 02:40:34;;;;;;;22.15;9.68;;;3.40;99.90;;;;;;5040944;28;20043;-63
2020/12/28 02:42:59;;;;;;;18.70;9.20;;;3.40;99.90;;;;;;5041618;28;20119;-62
2020/12/28 02:45:25;;;;;;;27.15;10.65;;;3.50;99.90;;;;;;5039981;28;20037;-63
2020/12/28 02:47:50;;;;;;;25.30;11.15;;;3.50;99.90;;;;;;5038872;28;20040;-61
2020/12/28 02:50:16;;;;;;;31.00;12.20;;;3.60;99.90;;;;;;5039637;28;21469;-62
2020/12/28 02:52:44;;;;;;;29.70;10.85;;;3.60;99.90;;;;;;5042967;28;20498;-60
2020/12/28 02:55:10;;;;;;;31.70;12.10;;;3.60;99.90;;;;;;5041887;28;20132;-61
2020/12/28 02:57:36;;;;;;;35.45;12.02;;;3.60;99.90;;;;;;5040578;28;20458;-62
2020/12/28 03:00:01;;;;;;;26.58;12.23;;;3.70;99.90;;;;;;5038675;28;20041;-62
2020/12/28 03:02:27;;;;;;;28.48;11.93;;;3.70;99.90;;;;;;5040188;28;20552;-61
2020/12/28 03:04:52;;;;;;;31.75;13.70;;;3.70;99.90;;;;;;5040620;28;20041;-60
2020/12/28 03:07:18;;;;;;;33.42;13.18;;;3.70;99.90;;;;;;5040523;28;20037;-62
2020/12/28 03:09:43;;;;;;;39.90;13.55;;;3.70;99.90;;;;;;5039382;28;20033;-62
2020/12/28 03:12:09;;;;;;;34.03;13.52;;;3.80;99.90;;;;;;5039152;28;20053;-62
2020/12/28 03:14:34;;;;;;;28.88;12.35;;;3.70;99.90;;;;;;5039396;28;20033;-63
2020/12/28 03:17:00;;;;;;;35.80;13.40;;;3.80;99.90;;;;;;5040829;28;20043;-63
2020/12/28 03:19:25;;;;;;;30.15;12.93;;;3.80;99.90;;;;;;5040752;28;20043;-62
2020/12/28 03:21:51;;;;;;;39.55;15.02;;;3.80;99.90;;;;;;5036679;28;20033;-63
2020/12/28 03:24:16;;;;;;;37.08;14.30;;;3.80;99.90;;;;;;5041104;28;20103;-63
2020/12/28 03:26:42;;;;;;;38.90;15.02;;;3.80;99.90;;;;;;5040080;28;20040;-63
2020/12/28 03:29:07;;;;;;;38.95;14.98;;;3.80;99.90;;;;;;5040459;28;20029;-61
2020/12/28 03:31:33;;;;;;;46.95;14.98;;;3.80;99.90;;;;;;5041124;28;20029;-63
2020/12/28 03:33:58;;;;;;;39.78;13.65;;;3.90;99.90;;;;;;5039496;28;20056;-63
2020/12/28 03:36:24;;;;;;;35.72;14.43;;;3.80;99.90;;;;;;5037858;28;20026;-62
2020/12/28 03:38:49;;;;;;;38.60;14.52;;;3.90;99.90;;;;;;5039119;28;20056;-63
2020/12/28 03:41:15;;;;;;;42.60;15.50;;;3.90;99.90;;;;;;5040883;28;20025;-63
2020/12/28 03:43:41;;;;;;;36.60;14.50;;;3.90;99.90;;;;;;5040506;28;20270;-62
2020/12/28 03:46:06;;;;;;;36.20;14.13;;;3.90;99.90;;;;;;5039256;28;20034;-62
2020/12/28 03:48:32;;;;;;;35.83;14.15;;;3.90;99.90;;;;;;5037236;28;20791;-64
2020/12/28 03:50:57;;;;;;;45.47;14.50;;;3.90;99.90;;;;;;5039484;28;20117;-62
2020/12/28 03:53:23;;;;;;;41.75;15.27;;;4.00;99.90;;;;;;5040679;28;20025;-62
2020/12/28 03:55:48;;;;;;;34.67;13.73;;;4.00;99.90;;;;;;5038975;28;20040;-63
2020/12/28 03:58:14;;;;;;;37.53;13.15;;;3.90;99.90;;;;;;5039020;28;20537;-62
2020/12/28 04:00:39;;;;;;;41.80;14.35;;;3.90;99.90;;;;;;5041122;28;20056;-63
2020/12/28 04:03:05;;;;;;;36.90;14.60;;;3.90;99.90;;;;;;5039159;28;20033;-63
2020/12/28 04:05:31;;;;;;;33.58;13.52;;;4.00;99.90;;;;;;5037731;28;20039;-63
2020/12/28 04:07:56;;;;;;;37.97;13.65;;;4.00;99.90;;;;;;5038422;28;20030;-62
2020/12/28 04:10:22;;;;;;;37.53;14.35;;;4.00;99.90;;;;;;5040500;28;20037;-62
2020/12/28 04:12:48;;;;;;;32.80;13.25;;;4.00;99.90;;;;;;5040319;28;20121;-62
2020/12/28 04:15:13;;;;;;;34.25;12.27;;;4.00;99.90;;;;;;5038931;28;21125;-63
2020/12/28 04:17:39;;;;;;;26.30;11.80;;;4.00;99.90;;;;;;5037971;28;20037;-63
2020/12/28 04:20:04;;;;;;;30.15;12.00;;;4.00;99.90;;;;;;5038168;28;20134;-62
2020/12/28 04:22:30;;;;;;;34.28;12.90;;;3.90;99.90;;;;;;5040268;28;20041;-62
2020/12/28 04:24:55;;;;;;;31.45;11.85;;;3.90;99.90;;;;;;5035738;28;20034;-62
2020/12/28 04:27:21;;;;;;;32.00;12.32;;;3.90;99.90;;;;;;5039567;28;20120;-63
2020/12/28 04:29:49;;;;;;;25.92;11.57;;;4.00;99.90;;;;;;5039892;28;20101;-61
2020/12/28 04:32:15;;;;;;;35.20;13.88;;;3.90;99.90;;;;;;5039018;28;20029;-63
2020/12/28 04:34:41;;;;;;;29.42;11.55;;;4.00;99.90;;;;;;5037719;28;20105;-61
2020/12/28 04:37:07;;;;;;;31.33;12.60;;;4.00;99.90;;;;;;5037408;28;20135;-63
2020/12/28 04:39:32;;;;;;;44.22;13.45;;;3.90;99.90;;;;;;5039833;28;20187;-63
2020/12/28 04:41:58;;;;;;;29.73;12.80;;;3.90;99.90;;;;;;5038118;28;20044;-63
2020/12/28 04:44:23;;;;;;;32.40;11.73;;;4.00;99.90;;;;;;5038416;28;20039;-62
2020/12/28 04:46:50;;;;;;;29.40;12.25;;;3.90;99.90;;;;;;5039867;28;20522;-63
2020/12/28 04:49:16;;;;;;;27.10;11.60;;;3.90;99.90;;;;;;5037723;28;20032;-62
2020/12/28 04:51:42;;;;;;;28.50;12.55;;;3.90;99.90;;;;;;5037638;28;20030;-62
2020/12/28 04:54:07;;;;;;;30.23;11.80;;;3.90;99.90;;;;;;5039522;28;20129;-63
2020/12/28 04:56:36;;;;;;;29.02;10.90;;;3.90;99.90;;;;;;5036807;28;20037;-63
2020/12/28 04:59:02;;;;;;;25.25;10.95;;;3.90;99.90;;;;;;5037073;28;20025;-63
2020/12/28 05:01:27;;;;;;;33.22;11.48;;;3.90;99.90;;;;;;5036446;28;20040;-62
2020/12/28 05:03:54;;;;;;;27.45;10.82;;;3.90;99.90;;;;;;5039746;28;20083;-63
2020/12/28 05:06:19;;;;;;;29.42;10.32;;;3.90;99.90;;;;;;5037071;28;20076;-63
2020/12/28 05:08:45;;;;;;;24.00;9.40;;;3.90;99.90;;;;;;5037357;28;20033;-62
2020/12/28 05:11:14;;;;;;;26.80;9.55;;;3.90;99.90;;;;;;5039331;28;20120;-62
2020/12/28 05:13:46;;;;;;;20.13;9.20;;;3.90;99.90;;;;;;5038342;28;20052;-62
2020/12/28 05:16:13;;;;;;;21.70;9.55;;;3.90;99.90;;;;;;5036751;28;20529;-63
2020/12/28 05:18:39;;;;;;;26.65;8.80;;;3.90;99.90;;;;;;5038387;28;20532;-62
2020/12/28 05:21:04;;;;;;;24.67;9.90;;;3.90;99.90;;;;;;5039409;28;20029;-63
2020/12/28 05:23:32;;;;;;;26.30;8.98;;;3.80;99.90;;;;;;5038911;28;20041;-63
2020/12/28 05:25:58;;;;;;;18.95;7.28;;;3.90;99.90;;;;;;5037140;28;20060;-62
2020/12/28 05:28:27;;;;;;;22.48;7.47;;;3.80;99.90;;;;;;5037421;28;20053;-63
2020/12/28 05:30:59;;;;;;;15.30;6.67;;;3.80;99.90;;;;;;5038708;28;20043;-63
2020/12/28 05:33:31;;;;;;;23.95;7.32;;;3.90;99.90;;;;;;5038693;28;20025;-63
2020/12/28 05:35:57;;;;;;;18.65;6.82;;;3.80;99.90;;;;;;5037275;28;20030;-63
2020/12/28 05:38:25;;;;;;;21.02;8.52;;;3.90;99.90;;;;;;5036727;28;20075;-63
2020/12/28 05:41:01;;;;;;;20.45;7.20;;;3.90;99.90;;;;;;5038310;28;20452;-63
2020/12/28 05:43:30;;;;;;;30.50;7.35;;;4.00;99.90;;;;;;5036226;28;20036;-62
2020/12/28 05:45:56;;;;;;;16.95;7.40;;;4.00;99.90;;;;;;5038322;28;20037;-62
2020/12/28 05:48:25;;;;;;;15.73;6.70;;;3.90;99.90;;;;;;5038967;28;20394;-62
2020/12/28 05:50:57;;;;;;;17.10;7.18;;;3.90;99.90;;;;;;5038279;28;20031;-63
2020/12/28 05:53:26;;;;;;;21.92;8.20;;;3.90;99.90;;;;;;5036081;28;20513;-63
2020/12/28 05:55:53;;;;;;;18.67;8.20;;;3.90;99.90;;;;;;5037960;28;20038;-64
2020/12/28 05:58:20;;;;;;;21.85;8.75;;;3.90;99.90;;;;;;5038826;28;20120;-62
2020/12/28 06:00:48;;;;;;;25.58;10.52;;;4.00;99.90;;;;;;5038338;28;20047;-63
2020/12/28 06:03:25;;;;;;;23.92;9.20;;;4.00;99.90;;;;;;5038950;28;20079;-62
2020/12/28 06:05:55;;;;;;;22.02;9.55;;;4.00;99.90;;;;;;5037850;28;20626;-63
2020/12/28 06:08:21;;;;;;;20.05;9.68;;;4.00;99.90;;;;;;5036340;28;20033;-64
2020/12/28 06:10:46;;;;;;;16.20;8.20;;;4.00;99.90;;;;;;5036798;28;20029;-63
2020/12/28 06:13:25;;;;;;;20.15;9.63;;;4.00;99.90;;;;;;5037991;28;20047;-63
2020/12/28 06:16:04;;;;;;;23.55;8.38;;;4.10;99.90;;;;;;5036495;28;20033;-63
2020/12/28 06:18:30;;;;;;;19.13;8.40;;;4.00;99.90;;;;;;5036321;28;20482;-64
2020/12/28 06:20:56;;;;;;;22.33;9.45;;;4.00;99.90;;;;;;5036913;28;20037;-63
2020/12/28 06:23:28;;;;;;;22.38;8.48;;;4.00;99.90;;;;;;5044226;28;20033;-63
2020/12/28 06:25:55;;;;;;;17.00;7.78;;;4.10;99.90;;;;;;5040181;28;20026;-62
2020/12/28 06:28:25;;;;;;;16.92;8.13;;;4.10;99.90;;;;;;5043618;28;20040;-62
2020/12/28 06:30:50;;;;;;;14.32;6.30;;;4.00;99.90;;;;;;5039812;28;21160;-63
2020/12/28 06:33:17;;;;;;;19.90;7.85;;;4.00;99.90;;;;;;5041141;28;20429;-63
2020/12/28 06:35:43;;;;;;;18.75;9.30;;;4.00;99.90;;;;;;5041637;28;20371;-65
2020/12/28 06:38:08;;;;;;;18.65;8.65;;;4.00;99.90;;;;;;5041292;28;20091;-63
2020/12/28 06:40:40;;;;;;;20.20;7.88;;;4.10;99.90;;;;;;5039353;28;20033;-62
2020/12/28 06:43:17;;;;;;;23.20;8.63;;;4.10;99.90;;;;;;5038256;28;20037;-61
2020/12/28 06:45:45;;;;;;;19.67;8.38;;;4.10;99.90;;;;;;5041201;28;20114;-63
2020/12/28 06:48:21;;;;;;;20.13;8.82;;;4.10;99.90;;;;;;5040664;28;20032;-62
2020/12/28 06:50:48;;;;;;;16.35;8.10;;;4.10;99.90;;;;;;5038725;28;20168;-63
2020/12/28 06:53:21;;;;;;;18.50;7.45;;;4.10;99.90;;;;;;5040694;28;20079;-63
2020/12/28 06:55:47;;;;;;;18.73;7.03;;;4.10;99.90;;;;;;5038437;28;20025;-61
2020/12/28 06:58:13;;;;;;;13.30;5.32;;;4.10;99.90;;;;;;5040547;28;20044;-63
2020/12/28 07:00:39;;;;;;;14.15;6.00;;;4.10;99.90;;;;;;5039408;28;20548;-63
2020/12/28 07:03:12;;;;;;;16.08;6.93;;;4.10;99.90;;;;;;5038665;28;20111;-63
2020/12/28 07:05:38;;;;;;;14.23;5.75;;;4.00;99.90;;;;;;5043922;28;20029;-63
2020/12/28 07:08:04;;;;;;;17.38;7.15;;;4.00;99.90;;;;;;5044807;28;20991;-63
2020/12/28 07:10:29;;;;;;;15.73;6.10;;;4.00;99.90;;;;;;5046737;28;20040;-63
2020/12/28 07:13:02;;;;;;;11.98;6.05;;;3.90;99.90;;;;;;5044043;28;20033;-63
2020/12/28 07:15:27;;;;;;;12.70;5.80;;;3.90;99.90;;;;;;5041820;28;20426;-62
2020/12/28 07:17:53;;;;;;;12.90;6.32;;;3.90;99.90;;;;;;5039080;28;20040;-62
2020/12/28 07:20:18;;;;;;;16.05;5.95;;;3.90;99.90;;;;;;5038934;28;20462;-63
2020/12/28 07:22:44;;;;;;;19.05;6.47;;;3.90;99.90;;;;;;5037763;28;20506;-63
2020/12/28 07:25:12;;;;;;;16.23;6.93;;;3.90;99.90;;;;;;5039555;28;20039;-62
2020/12/28 07:27:42;;;;;;;15.40;7.15;;;3.90;99.90;;;;;;5039857;28;20040;-63
2020/12/28 07:30:12;;;;;;;15.90;5.57;;;3.90;99.90;;;;;;5039440;28;20037;-63
2020/12/28 07:32:39;;;;;;;20.35;7.78;;;3.90;99.90;;;;;;5039439;28;20079;-62
2020/12/28 07:35:06;;;;;;;12.77;5.72;;;3.90;99.90;;;;;;5036831;28;20059;-62
2020/12/28 07:37:32;;;;;;;15.07;6.50;;;4.00;99.90;;;;;;5037105;28;20037;-62
2020/12/28 07:39:58;;;;;;;11.80;5.13;;;4.10;99.90;;;;;;5041020;28;20031;-62
2020/12/28 07:42:25;;;;;;;11.07;5.55;;;4.10;99.90;;;;;;5038011;28;20112;-63
2020/12/28 07:44:59;;;;;;;11.80;5.28;;;4.10;99.90;;;;;;5037159;28;20116;-63
2020/12/28 07:47:54;;;;;;;10.35;4.68;;;4.10;99.90;;;;;;5037725;28;20034;-63
2020/12/28 07:50:20;;;;;;;8.25;4.22;;;4.10;99.90;;;;;;5041200;28;20509;-63
2020/12/28 07:52:57;;;;;;;12.20;4.85;;;4.20;99.90;;;;;;5040256;28;20390;-63
2020/12/28 07:55:26;;;;;;;12.88;4.40;;;4.20;99.90;;;;;;5037031;28;20033;-63
2020/12/28 07:58:08;;;;;;;14.40;5.10;;;4.20;99.90;;;;;;5036797;28;20061;-62
2020/12/28 08:00:39;;;;;;;15.25;4.25;;;4.20;99.90;;;;;;5038335;28;20048;-62
2020/12/28 08:03:15;;;;;;;13.65;4.80;;;4.20;99.90;;;;;;5038359;28;20088;-63
2020/12/28 08:05:41;;;;;;;14.13;4.60;;;4.10;99.90;;;;;;5040042;28;20087;-63
2020/12/28 08:08:21;;;;;;;9.40;4.50;;;4.10;99.90;;;;;;5041321;28;20040;-62
2020/12/28 08:11:05;;;;;;;13.77;4.68;;;4.10;99.90;;;;;;5038887;28;20064;-63
2020/12/28 08:13:36;;;;;;;7.60;4.25;;;4.10;99.90;;;;;;5041147;28;20051;-62
2020/12/28 08:16:11;;;;;;;12.85;4.53;;;4.10;99.90;;;;;;5037904;28;20034;-63
2020/12/28 08:18:48;;;;;;;10.50;4.35;;;4.10;99.90;;;;;;5037474;28;20051;-63
2020/12/28 08:21:14;;;;;;;7.57;3.85;;;4.10;99.90;;;;;;5038131;28;20038;-63
2020/12/28 08:23:40;;;;;;;9.50;4.53;;;4.10;99.90;;;;;;5040102;28;20035;-61
2020/12/28 08:26:17;;;;;;;9.05;3.75;;;4.10;99.90;;;;;;5036336;28;20117;-63
2020/12/28 08:28:49;;;;;;;13.13;4.40;;;4.10;99.90;;;;;;5040145;28;20041;-62
2020/12/28 08:31:15;;;;;;;8.82;3.67;;;4.20;99.90;;;;;;5041260;28;20029;-63
2020/12/28 08:33:40;;;;;;;7.72;3.25;;;4.20;99.90;;;;;;5043088;28;20033;-63
2020/12/28 08:36:06;;;;;;;22.00;7.07;;;4.20;99.90;;;;;;5041021;28;20029;-64
2020/12/28 08:38:32;;;;;;;23.02;5.70;;;4.20;99.90;;;;;;5039523;28;20029;-63
2020/12/28 08:40:58;;;;;;;12.85;4.88;;;4.20;99.90;;;;;;5043331;28;20421;-63
2020/12/28 08:43:24;;;;;;;9.25;3.75;;;4.20;99.90;;;;;;5044020;28;20036;-62
2020/12/28 08:46:04;;;;;;;11.65;4.65;;;4.20;99.90;;;;;;5039279;28;20038;-63
2020/12/28 08:48:29;;;;;;;11.55;3.88;;;4.30;99.90;;;;;;5040948;28;20028;-66
2020/12/28 08:50:55;;;;;;;8.63;3.53;;;4.30;99.90;;;;;;5040983;28;20117;-63
2020/12/28 08:53:22;;;;;;;10.00;3.55;;;4.30;99.90;;;;;;5042819;28;20541;-63
2020/12/28 08:56:01;;;;;;;9.25;3.47;;;4.40;99.90;;;;;;5041622;28;20487;-63
2020/12/28 08:58:27;;;;;;;16.08;3.72;;;4.30;99.90;;;;;;5042692;28;20064;-63
2020/12/28 09:00:52;;;;;;;8.40;4.10;;;4.30;99.90;;;;;;5044214;28;20110;-64
2020/12/28 09:03:18;;;;;;;12.02;3.88;;;4.40;99.90;;;;;;5038432;28;20397;-63
2020/12/28 09:05:43;;;;;;;9.88;4.38;;;4.40;99.90;;;;;;5041636;28;20037;-63
2020/12/28 09:08:09;;;;;;;7.50;3.20;;;4.60;99.90;;;;;;5041453;28;20530;-61
2020/12/28 09:10:34;;;;;;;13.85;3.38;;;4.60;99.90;;;;;;5037134;28;20049;-63
2020/12/28 09:13:00;;;;;;;9.63;2.60;;;4.50;99.90;;;;;;5034424;28;20493;-63
2020/12/28 09:15:25;;;;;;;10.10;2.85;;;4.50;99.90;;;;;;5039558;28;20128;-63
2020/12/28 09:17:51;;;;;;;11.43;3.10;;;4.50;99.90;;;;;;5036916;28;20118;-63
2020/12/28 09:20:17;;;;;;;9.02;3.50;;;4.50;99.90;;;;;;5038142;28;20499;-62
2020/12/28 09:22:42;;;;;;;7.07;2.60;;;4.50;99.90;;;;;;5037692;28;20308;-63
2020/12/28 09:25:08;;;;;;;8.00;2.83;;;4.50;99.90;;;;;;5039724;28;20033;-65
2020/12/28 09:27:33;;;;;;;6.40;2.38;;;4.60;99.90;;;;;;5036995;28;20390;-62
2020/12/28 09:29:59;;;;;;;8.68;2.70;;;4.60;99.90;;;;;;5037106;28;20030;-63
2020/12/28 09:32:24;;;;;;;11.13;4.40;;;4.60;99.90;;;;;;5042102;28;20041;-63
2020/12/28 09:34:51;;;;;;;10.20;3.80;;;4.60;99.90;;;;;;5042582;28;20041;-63
2020/12/28 09:37:17;;;;;;;7.57;3.03;;;4.60;99.90;;;;;;5040029;28;20116;-63
2020/12/28 09:39:43;;;;;;;9.32;2.33;;;4.70;99.90;;;;;;5039569;28;20127;-63
2020/12/28 09:42:09;;;;;;;3.38;1.80;;;4.70;99.90;;;;;;5041034;28;20401;-62
2020/12/28 09:44:34;;;;;;;12.23;3.17;;;4.80;99.90;;;;;;5043018;28;20048;-63
2020/12/28 09:47:00;;;;;;;18.63;3.97;;;4.80;99.90;;;;;;5040270;28;20793;-62
2020/12/28 09:49:26;;;;;;;11.13;2.50;;;4.80;99.90;;;;;;5040748;28;20040;-62
2020/12/28 09:51:54;;;;;;;4.22;2.13;;;4.90;99.90;;;;;;5038818;28;20033;-62
2020/12/28 09:54:21;;;;;;;8.75;2.03;;;4.90;99.90;;;;;;5041057;28;20041;-61
2020/12/28 09:56:47;;;;;;;3.88;1.45;;;4.90;99.90;;;;;;5040056;28;20047;-62
2020/12/28 09:59:13;;;;;;;7.88;1.73;;;4.90;99.90;;;;;;5043257;28;20541;-61
2020/12/28 10:01:42;;;;;;;9.15;2.95;;;5.00;99.90;;;;;;5044144;28;20033;-63
2020/12/28 10:04:07;;;;;;;11.45;2.30;;;5.00;99.90;;;;;;5043711;28;20032;-61
2020/12/28 10:06:35;;;;;;;9.73;1.80;;;5.00;99.90;;;;;;5044379;28;20037;-62
2020/12/28 10:09:06;;;;;;;7.70;1.35;;;5.00;99.90;;;;;;5039853;28;20029;-62
2020/12/28 10:11:32;;;;;;;;;;;5.00;99.90;;;;;;5043585;28;20554;-62
2020/12/28 10:13:58;;;;;;;9.15;1.52;;;5.00;99.90;;;;;;5041690;28;19920;-62
2020/12/28 10:16:26;;;;;;;6.25;1.33;;;5.10;99.90;;;;;;5044625;28;20398;-61
2020/12/28 10:18:55;;;;;;;6.93;1.42;;;5.10;99.90;;;;;;5040792;28;20030;-61
2020/12/28 10:21:21;;;;;;;6.03;1.52;;;5.10;99.90;;;;;;5040471;28;20033;-61
2020/12/28 10:23:48;;;;;;;6.30;1.50;;;5.20;99.90;;;;;;5043589;28;20405;-62
2020/12/28 10:26:25;;;;;;;3.13;1.10;;;5.30;99.90;;;;;;5044057;28;20528;-62
2020/12/28 10:28:51;;;;;;;9.57;2.00;;;5.30;99.90;;;;;;5040039;28;20041;-63
2020/12/28 10:31:18;;;;;;;7.80;0.85;;;5.30;99.90;;;;;;5039820;28;20041;-62
2020/12/28 10:33:44;;;;;;;4.00;1.13;;;5.30;99.90;;;;;;5040266;28;20451;-61
2020/12/28 10:36:16;;;;;;;10.60;2.45;;;5.30;99.90;;;;;;5043699;28;20521;-62
2020/12/28 10:38:41;;;;;;;8.70;2.70;;;5.40;99.90;;;;;;5039377;28;20182;-62
2020/12/28 10:41:07;;;;;;;3.75;1.13;;;5.50;99.90;;;;;;5040812;28;20525;-62
2020/12/28 10:43:33;;;;;;;4.32;1.08;;;5.50;99.90;;;;;;5042834;28;20037;-62
2020/12/28 10:45:59;;;;;;;4.82;0.80;;;5.60;99.90;;;;;;5041208;28;20029;-62
2020/12/28 10:48:24;;;;;;;3.90;1.00;;;5.60;99.90;;;;;;5039248;28;20394;-62
2020/12/28 10:50:50;;;;;;;3.30;1.27;;;5.60;99.90;;;;;;5042175;28;20091;-62
2020/12/28 10:53:15;;;;;;;3.85;1.00;;;5.50;99.90;;;;;;5041747;28;20041;-62
2020/12/28 10:55:41;;;;;;;4.22;0.93;;;5.50;99.90;;;;;;5041991;28;20032;-62
2020/12/28 10:58:07;;;;;;;6.97;1.20;;;5.50;99.90;;;;;;5041521;28;20437;-61
2020/12/28 11:00:32;;;;;;;1.98;0.75;;;5.70;99.90;;;;;;5042498;28;20033;-62
2020/12/28 11:02:58;;;;;;;1.92;0.70;;;5.70;99.90;;;;;;5038054;28;20037;-64
2020/12/28 11:05:23;;;;;;;9.45;0.88;;;5.70;99.90;;;;;;5041980;28;20114;-62
2020/12/28 11:07:49;;;;;;;3.75;0.90;;;5.70;99.90;;;;;;5040100;28;20507;-63
2020/12/28 11:10:14;;;;;;;1.95;0.80;;;5.70;99.90;;;;;;5041977;28;20033;-63
2020/12/28 11:12:40;;;;;;;4.13;1.00;;;5.70;99.90;;;;;;5041522;28;20406;-63
2020/12/28 11:15:05;;;;;;;5.35;1.05;;;5.70;99.90;;;;;;5038904;28;20037;-63
2020/12/28 11:17:31;;;;;;;4.10;1.35;;;5.70;99.90;;;;;;5042323;28;20065;-62
2020/12/28 11:19:56;;;;;;;3.70;0.88;;;5.70;99.90;;;;;;5040271;28;20045;-63
2020/12/28 11:22:22;;;;;;;2.75;1.30;;;5.80;99.90;;;;;;5041034;28;20451;-63
2020/12/28 11:24:47;;;;;;;6.10;1.67;;;5.90;99.90;;;;;;5039863;28;20038;-63
2020/12/28 11:27:13;;;;;;;1.15;0.80;;;6.20;99.90;;;;;;5040848;28;20033;-63
2020/12/28 11:29:38;;;;;;;7.28;1.45;;;6.10;99.90;;;;;;5039646;28;20041;-63
2020/12/28 11:32:04;;;;;;;4.97;1.27;;;6.10;99.90;;;;;;5040797;28;20037;-63
2020/12/28 11:34:29;;;;;;;5.47;1.00;;;6.00;99.90;;;;;;5041199;28;20083;-63
2020/12/28 11:36:55;;;;;;;6.50;1.08;;;5.80;99.90;;;;;;5038695;28;20494;-62
2020/12/28 11:39:21;;;;;;;4.38;0.80;;;5.70;99.90;;;;;;5041231;28;20033;-63
2020/12/28 11:41:46;;;;;;;6.10;1.08;;;5.60;99.90;;;;;;5039574;28;20064;-63
2020/12/28 11:44:14;;;;;;;1.77;0.60;;;5.50;99.90;;;;;;5039769;28;20114;-63
2020/12/28 11:46:40;;;;;;;5.90;1.08;;;5.40;99.90;;;;;;5041300;28;20038;-63
2020/12/28 11:49:06;;;;;;;3.38;0.80;;;5.40;99.90;;;;;;5041791;28;20025;-65
2020/12/28 11:51:31;;;;;;;5.43;0.95;;;5.30;99.90;;;;;;5035464;28;20069;-62
2020/12/28 11:53:57;;;;;;;2.75;1.00;;;5.30;99.90;;;;;;5039886;28;20563;-63
2020/12/28 11:56:22;;;;;;;3.00;0.80;;;5.30;99.90;;;;;;5038468;28;20032;-64
2020/12/28 11:58:48;;;;;;;4.40;1.02;;;5.30;99.90;;;;;;5047263;28;20032;-63
2020/12/28 12:01:18;;;;;;;1.70;0.75;;;5.20;99.90;;;;;;5040174;28;20044;-63
2020/12/28 12:03:47;;;;;;;7.00;1.00;;;5.20;99.90;;;;;;5041176;28;20029;-63
2020/12/28 12:06:17;;;;;;;7.50;0.80;;;5.30;99.90;;;;;;5044790;28;20036;-63
2020/12/28 12:11:29;;;;;;;3.15;0.70;;;5.50;99.90;;;;;;5038473;28;19985;-63
2020/12/28 12:13:55;;;;;;;4.43;1.42;;;5.50;99.90;;;;;;5042831;28;20033;-63
2020/12/28 12:16:22;;;;;;;3.38;1.60;;;5.50;99.90;;;;;;5043049;28;20040;-63
2020/12/28 12:18:48;;;;;;;3.92;0.88;;;5.60;99.90;;;;;;5042744;28;20047;-64
2020/12/28 12:21:14;;;;;;;2.58;0.77;;;5.60;99.90;;;;;;5042350;28;20112;-63
2020/12/28 12:23:39;;;;;;;3.95;0.82;;;5.70;99.90;;;;;;5040776;28;20079;-63
2020/12/28 12:26:05;;;;;;;5.07;0.90;;;5.70;99.90;;;;;;5042965;28;20397;-63
2020/12/28 12:28:30;;;;;;;4.43;1.10;;;5.80;99.90;;;;;;5042525;28;20412;-63
2020/12/28 12:30:56;;;;;;;4.97;0.90;;;5.70;99.90;;;;;;5038682;28;20083;-62
2020/12/28 12:33:21;;;;;;;7.38;2.15;;;5.70;99.90;;;;;;5037948;28;20402;-63
2020/12/28 12:35:47;;;;;;;3.15;0.73;;;5.70;99.90;;;;;;5035462;28;20038;-63
2020/12/28 12:38:12;;;;;;;4.47;1.15;;;5.70;99.90;;;;;;5045106;28;20037;-62
2020/12/28 12:40:38;;;;;;;4.45;0.57;;;5.70;99.90;;;;;;5037639;28;20486;-63
2020/12/28 12:43:04;;;;;;;2.55;0.90;;;5.70;99.90;;;;;;5036013;28;20076;-64
2020/12/28 12:45:30;;;;;;;2.78;1.05;;;5.70;99.90;;;;;;5033866;28;20102;-63
2020/12/28 12:47:56;;;;;;;4.10;0.68;;;5.60;99.90;;;;;;5037044;28;20037;-63
2020/12/28 12:50:21;;;;;;;8.45;1.83;;;5.60;99.90;;;;;;5039025;28;20052;-63